createdAt,value
2017-07-18T00:00:42.402Z,93.26
2017-07-18T00:01:43.651Z,93.26
2017-07-18T00:02:44.910Z,94.02
2017-07-18T00:03:46.146Z,93.93
2017-07-18T00:04:47.389Z,93.74
2017-07-18T00:05:48.650Z,93.64
2017-07-18T00:06:49.868Z,93.93
2017-07-18T00:07:51.276Z,93.74
2017-07-18T00:08:52.403Z,93.64
2017-07-18T00:09:53.654Z,93.93
2017-07-18T00:10:54.915Z,93.98
2017-07-18T00:11:56.166Z,93.5
2017-07-18T00:12:57.407Z,93.55
2017-07-18T00:13:58.632Z,94.07
2017-07-18T00:14:59.871Z,93.88
2017-07-18T00:16:01.191Z,93.79
2017-07-18T00:17:02.440Z,93.79
2017-07-18T00:18:03.668Z,94.36
2017-07-18T00:19:04.906Z,94.17
2017-07-18T00:20:06.145Z,94.07
2017-07-18T00:21:07.399Z,94.55
2017-07-18T00:22:08.645Z,95.03
2017-07-18T00:23:09.937Z,94.65
2017-07-18T00:24:11.185Z,94.84
2017-07-18T00:25:12.419Z,94.84
2017-07-18T00:26:13.669Z,94.84
2017-07-18T00:27:14.908Z,94.74
2017-07-18T00:28:16.164Z,94.74
2017-07-18T00:29:17.415Z,95.12
2017-07-18T00:30:18.670Z,95.12
2017-07-18T00:31:19.895Z,95.12
2017-07-18T00:32:21.127Z,95.12
2017-07-18T00:33:22.363Z,95.32
2017-07-18T00:34:23.639Z,95.03
2017-07-18T00:35:24.878Z,95.7
2017-07-18T00:36:26.114Z,95.7
2017-07-18T00:37:27.368Z,95.79
2017-07-18T00:38:28.677Z,95.51
2017-07-18T00:39:29.916Z,96.08
2017-07-18T00:40:31.154Z,96.08
2017-07-18T00:41:32.455Z,96.27
2017-07-18T00:42:33.684Z,96.37
2017-07-18T00:43:34.946Z,96.37
2017-07-18T00:44:36.162Z,96.18
2017-07-18T00:45:37.403Z,96.37
2017-07-18T00:46:38.638Z,96.47
2017-07-18T00:47:39.892Z,96.32
2017-07-18T00:48:41.169Z,96.51
2017-07-18T00:49:42.409Z,96.99
2017-07-18T00:50:43.650Z,96.89
2017-07-18T00:51:44.899Z,97.23
2017-07-18T00:52:46.136Z,97.37
2017-07-18T00:53:47.396Z,97.42
2017-07-18T00:54:48.614Z,97.08
2017-07-18T00:55:49.843Z,97.94
2017-07-18T00:56:51.182Z,97.94
2017-07-18T00:57:52.418Z,98.42
2017-07-18T00:58:53.679Z,98.33
2017-07-18T00:59:54.888Z,98.9
2017-07-18T01:00:56.172Z,98.61
2017-07-18T01:01:57.447Z,98.8
2017-07-18T01:02:58.709Z,98.99
2017-07-18T01:03:59.930Z,98.9
2017-07-18T01:05:01.167Z,98.52
2017-07-18T01:06:02.406Z,99.19
2017-07-18T01:07:03.653Z,98.99
2017-07-18T01:08:04.886Z,99.66
2017-07-18T01:09:06.226Z,99.28
2017-07-18T01:10:07.451Z,99.48
2017-07-18T01:11:08.691Z,99.99
2017-07-18T01:12:09.929Z,99.99
2017-07-18T01:13:11.182Z,99.99
2017-07-18T01:14:12.419Z,99.99
2017-07-18T01:15:13.662Z,99.99
2017-07-18T01:16:15.095Z,99.99
2017-07-18T01:17:16.379Z,99.99
2017-07-18T01:18:17.573Z,99.99
2017-07-18T01:19:18.813Z,99.99
2017-07-18T01:20:20.057Z,99.99
2017-07-18T01:21:21.413Z,99.99
2017-07-18T01:22:22.694Z,99.99
2017-07-18T01:23:23.889Z,99.99
2017-07-18T01:24:25.128Z,99.99
2017-07-18T01:25:26.380Z,99.99
2017-07-18T01:26:27.606Z,99.99
2017-07-18T01:27:28.861Z,99.99
2017-07-18T01:28:30.112Z,99.99
2017-07-18T01:29:31.443Z,99.99
2017-07-18T01:30:32.719Z,99.99
2017-07-18T01:31:33.930Z,99.99
2017-07-18T01:32:35.173Z,99.99
2017-07-18T01:33:36.411Z,99.99
2017-07-18T01:34:37.652Z,99.99
2017-07-18T01:35:39.001Z,99.99
2017-07-18T01:36:40.239Z,99.99
2017-07-18T01:37:41.469Z,99.99
2017-07-18T01:38:42.703Z,99.99
2017-07-18T01:39:44.032Z,99.99
2017-07-18T01:40:45.276Z,99.99
2017-07-18T01:41:46.514Z,99.99
2017-07-18T01:42:47.764Z,99.99
2017-07-18T01:43:49.008Z,99.99
2017-07-18T01:44:50.252Z,99.99
2017-07-18T01:45:51.590Z,99.99
2017-07-18T01:46:52.846Z,99.99
2017-07-18T01:47:54.122Z,99.99
2017-07-18T01:48:55.381Z,99.99
2017-07-18T01:49:56.616Z,99.99
2017-07-18T01:50:57.861Z,99.99
2017-07-18T01:51:59.093Z,99.99
2017-07-18T01:53:00.419Z,99.99
2017-07-18T01:54:01.651Z,99.99
2017-07-18T01:55:02.900Z,99.99
2017-07-18T01:56:04.138Z,99.99
2017-07-18T01:57:05.371Z,99.99
2017-07-18T01:58:06.612Z,99.99
2017-07-18T01:59:07.934Z,99.99
2017-07-18T02:00:09.206Z,99.99
2017-07-18T02:01:10.433Z,99.99
2017-07-18T02:02:11.679Z,99.99
2017-07-18T02:03:12.910Z,99.99
2017-07-18T02:04:14.144Z,99.99
2017-07-18T02:05:15.409Z,99.99
2017-07-18T02:06:16.644Z,99.99
2017-07-18T02:07:17.873Z,99.99
2017-07-18T02:08:19.180Z,99.99
2017-07-18T02:09:20.391Z,99.99
2017-07-18T02:10:21.627Z,99.99
2017-07-18T02:11:22.865Z,99.99
2017-07-18T02:12:24.138Z,99.99
2017-07-18T02:13:25.510Z,99.99
2017-07-18T02:14:26.756Z,99.99
2017-07-18T02:15:27.989Z,99.99
2017-07-18T02:16:29.259Z,99.99
2017-07-18T02:17:30.480Z,99.99
2017-07-18T02:18:31.730Z,99.99
2017-07-18T02:19:33.057Z,99.99
2017-07-18T02:20:34.277Z,99.99
2017-07-18T02:21:35.548Z,99.99
2017-07-18T02:22:36.781Z,99.99
2017-07-18T02:23:38.013Z,99.99
2017-07-18T02:24:39.395Z,99.99
2017-07-18T02:25:40.534Z,99.99
2017-07-18T02:26:41.822Z,99.99
2017-07-18T02:27:43.062Z,99.99
2017-07-18T02:28:44.300Z,99.99
2017-07-18T02:29:45.554Z,99.99
2017-07-18T02:30:46.761Z,99.99
2017-07-18T02:31:48.020Z,99.99
2017-07-18T02:32:49.276Z,99.99
2017-07-18T02:33:50.496Z,99.99
2017-07-18T02:34:51.729Z,99.99
2017-07-18T02:35:52.966Z,99.99
2017-07-18T02:36:54.195Z,99.99
2017-07-18T02:37:55.434Z,99.99
2017-07-18T02:38:56.671Z,99.99
2017-07-18T02:39:58.014Z,99.99
2017-07-18T02:40:59.278Z,99.99
2017-07-18T02:42:00.493Z,99.99
2017-07-18T02:43:01.726Z,99.99
2017-07-18T02:44:02.978Z,99.99
2017-07-18T02:45:04.226Z,99.99
2017-07-18T02:46:05.580Z,99.99
2017-07-18T02:47:06.814Z,99.99
2017-07-18T02:48:08.050Z,99.99
2017-07-18T02:49:09.292Z,99.99
2017-07-18T02:50:10.533Z,99.99
2017-07-18T02:51:11.756Z,99.99
2017-07-18T02:52:13.040Z,99.99
2017-07-18T02:53:14.272Z,99.99
2017-07-18T02:54:15.492Z,99.99
2017-07-18T02:55:16.758Z,99.99
2017-07-18T02:56:18.014Z,99.99
2017-07-18T02:57:19.237Z,99.99
2017-07-18T02:58:20.478Z,99.99
2017-07-18T02:59:21.726Z,99.99
2017-07-18T03:00:22.984Z,99.99
2017-07-18T03:01:24.208Z,99.99
2017-07-18T03:02:25.436Z,99.99
2017-07-18T03:03:26.680Z,99.99
2017-07-18T03:04:27.932Z,99.99
2017-07-18T03:05:29.360Z,99.99
2017-07-18T03:06:30.606Z,99.99
2017-07-18T03:07:31.851Z,99.99
2017-07-18T03:08:33.104Z,99.99
2017-07-18T03:09:34.345Z,99.99
2017-07-18T03:10:35.587Z,99.99
2017-07-18T03:11:36.827Z,99.99
2017-07-18T03:12:38.081Z,99.99
2017-07-18T03:13:39.316Z,99.99
2017-07-18T03:14:40.556Z,99.99
2017-07-18T03:15:41.854Z,99.99
2017-07-18T03:16:43.101Z,99.99
2017-07-18T03:17:44.455Z,99.99
2017-07-18T03:18:45.707Z,99.99
2017-07-18T03:19:46.936Z,99.99
2017-07-18T03:20:48.194Z,99.99
2017-07-18T03:21:49.415Z,99.99
2017-07-18T03:22:50.657Z,99.99
2017-07-18T03:23:51.894Z,99.99
2017-07-18T03:24:53.179Z,99.99
2017-07-18T03:25:54.377Z,99.99
2017-07-18T03:26:55.634Z,99.99
2017-07-18T03:27:56.907Z,99.99
2017-07-18T03:28:58.139Z,99.99
2017-07-18T03:29:59.411Z,99.99
2017-07-18T03:31:00.787Z,99.99
2017-07-18T03:32:02.079Z,99.99
2017-07-18T03:33:03.312Z,99.99
2017-07-18T03:34:04.554Z,99.99
2017-07-18T03:35:05.828Z,99.99
2017-07-18T03:36:07.067Z,99.99
2017-07-18T03:37:08.302Z,99.99
2017-07-18T03:38:09.633Z,99.99
2017-07-18T03:39:10.872Z,99.99
2017-07-18T03:40:12.102Z,99.99
2017-07-18T03:41:13.363Z,99.99
2017-07-18T03:42:14.587Z,99.99
2017-07-18T03:43:15.824Z,99.99
2017-07-18T03:44:17.175Z,99.99
2017-07-18T03:45:18.439Z,99.99
2017-07-18T03:46:19.655Z,99.99
2017-07-18T03:47:20.904Z,99.99
2017-07-18T03:48:22.165Z,99.99
2017-07-18T03:49:23.608Z,99.99
2017-07-18T03:50:24.938Z,99.99
2017-07-18T03:51:26.185Z,99.99
2017-07-18T03:52:27.420Z,99.99
2017-07-18T03:53:28.662Z,99.99
2017-07-18T03:54:29.903Z,99.99
2017-07-18T03:55:31.270Z,99.99
2017-07-18T03:56:32.397Z,99.99
2017-07-18T03:57:33.674Z,99.99
2017-07-18T03:58:34.965Z,99.99
2017-07-18T03:59:36.204Z,99.99
2017-07-18T04:00:37.565Z,99.99
2017-07-18T04:01:38.801Z,99.99
2017-07-18T04:02:40.067Z,99.99
2017-07-18T04:03:41.352Z,99.99
2017-07-18T04:04:42.593Z,99.99
2017-07-18T04:05:43.838Z,99.99
2017-07-18T04:06:45.083Z,99.99
2017-07-18T04:07:46.394Z,99.99
2017-07-18T04:08:47.725Z,99.99
2017-07-18T04:09:48.966Z,99.99
2017-07-18T04:10:50.203Z,99.99
2017-07-18T04:11:51.437Z,99.99
2017-07-18T04:12:52.688Z,99.99
2017-07-18T04:13:54.015Z,99.99
2017-07-18T04:14:55.244Z,99.99
2017-07-18T04:15:56.485Z,99.99
2017-07-18T04:16:57.713Z,99.99
2017-07-18T04:17:58.951Z,99.99
2017-07-18T04:19:00.201Z,99.99
2017-07-18T04:20:01.527Z,99.99
2017-07-18T04:21:02.760Z,99.99
2017-07-18T04:22:03.987Z,99.99
2017-07-18T04:23:05.237Z,99.99
2017-07-18T04:24:06.470Z,99.99
2017-07-18T04:25:07.716Z,99.99
2017-07-18T04:26:08.945Z,99.99
2017-07-18T04:27:10.198Z,99.99
2017-07-18T04:28:11.529Z,99.99
2017-07-18T04:29:12.814Z,99.99
2017-07-18T04:30:14.048Z,99.99
2017-07-18T04:31:15.290Z,99.99
2017-07-18T04:32:16.525Z,99.99
2017-07-18T04:33:17.781Z,99.99
2017-07-18T04:34:19.121Z,99.99
2017-07-18T04:35:20.364Z,99.99
2017-07-18T04:36:21.603Z,99.99
2017-07-18T04:37:22.832Z,99.99
2017-07-18T04:38:24.068Z,99.99
2017-07-18T04:39:25.299Z,99.99
2017-07-18T04:40:26.569Z,99.99
2017-07-18T04:41:27.837Z,99.62
2017-07-18T04:42:29.079Z,98.28
2017-07-18T04:43:30.326Z,98.43
2017-07-18T04:44:31.564Z,97.47
2017-07-18T04:45:32.816Z,95.84
2017-07-18T04:46:34.054Z,94.74
2017-07-18T04:47:35.303Z,93.69
2017-07-18T04:48:36.543Z,92.83
2017-07-18T04:49:37.791Z,91.3
2017-07-18T04:50:39.037Z,91.34
2017-07-18T04:51:40.275Z,90.86
2017-07-18T04:52:41.608Z,90.86
2017-07-18T04:53:42.852Z,90.29
2017-07-18T04:54:44.098Z,89.14
2017-07-18T04:55:45.334Z,88.95
2017-07-18T04:56:46.585Z,88.85
2017-07-18T04:57:47.814Z,89.33
2017-07-18T04:58:49.054Z,88.28
2017-07-18T04:59:50.355Z,87.9
2017-07-18T05:00:51.754Z,88.76
2017-07-18T05:01:52.971Z,87.9
2017-07-18T05:02:54.214Z,88.09
2017-07-18T05:03:55.450Z,87.9
2017-07-18T05:04:56.689Z,87.7
2017-07-18T05:05:57.927Z,87.94
2017-07-18T05:06:59.310Z,87.46
2017-07-18T05:08:00.670Z,87.08
2017-07-18T05:09:01.906Z,87.08
2017-07-18T05:10:03.143Z,85.64
2017-07-18T05:11:04.380Z,85.83
2017-07-18T05:12:05.623Z,85.88
2017-07-18T05:13:06.881Z,84.44
2017-07-18T05:14:08.152Z,84
2017-07-18T05:15:09.373Z,81.98
2017-07-18T05:16:10.611Z,79.63
2017-07-18T05:17:11.909Z,78.13
2017-07-18T05:18:13.147Z,76.92
2017-07-18T05:19:14.441Z,73.83
2017-07-18T05:20:15.679Z,70.78
2017-07-18T05:21:16.941Z,67.97
2017-07-18T05:22:18.156Z,66.36
2017-07-18T05:23:19.405Z,62.96
2017-07-18T05:24:20.642Z,61.51
2017-07-18T05:25:21.941Z,59.52
2017-07-18T05:26:23.281Z,59.03
2017-07-18T05:27:24.546Z,58.19
2017-07-18T05:28:25.797Z,57.23
2017-07-18T05:29:27.036Z,56.26
2017-07-18T05:30:28.286Z,55.42
2017-07-18T05:31:29.631Z,55.04
2017-07-18T05:32:30.866Z,54.77
2017-07-18T05:33:32.103Z,53.93
2017-07-18T05:34:33.344Z,53.16
2017-07-18T05:35:34.581Z,51.83
2017-07-18T05:36:36.055Z,51.18
2017-07-18T05:37:37.407Z,50.92
2017-07-18T05:38:38.646Z,49.95
2017-07-18T05:39:39.872Z,49
2017-07-18T05:40:41.136Z,48.15
2017-07-18T05:41:42.366Z,46.53
2017-07-18T05:42:43.716Z,45.85
2017-07-18T05:43:44.968Z,45.85
2017-07-18T05:44:46.264Z,45.47
2017-07-18T05:45:47.512Z,45.56
2017-07-18T05:46:48.772Z,44.64
2017-07-18T05:47:50.004Z,43.1
2017-07-18T05:48:51.249Z,41.96
2017-07-18T05:49:52.590Z,42.27
2017-07-18T05:50:53.854Z,39.96
2017-07-18T05:51:55.110Z,40.25
2017-07-18T05:52:56.350Z,39.59
2017-07-18T05:53:57.596Z,39.49
2017-07-18T05:54:58.852Z,38.91
2017-07-18T05:56:00.185Z,38.83
2017-07-18T05:57:01.632Z,38.07
2017-07-18T05:58:02.882Z,36.72
2017-07-18T05:59:04.124Z,35.26
2017-07-18T06:00:05.378Z,35.2
2017-07-18T06:01:06.610Z,35.06
2017-07-18T06:02:07.868Z,35.75
2017-07-18T06:03:09.131Z,35.83
2017-07-18T06:04:10.384Z,36.02
2017-07-18T06:05:11.627Z,36.87
2017-07-18T06:06:12.870Z,38.39
2017-07-18T06:07:14.126Z,40.21
2017-07-18T06:08:15.484Z,40.39
2017-07-18T06:09:16.723Z,41.33
2017-07-18T06:10:17.972Z,41.36
2017-07-18T06:11:19.260Z,42.43
2017-07-18T06:12:20.472Z,42.3
2017-07-18T06:13:21.727Z,41.84
2017-07-18T06:14:22.970Z,41.72
2017-07-18T06:15:24.336Z,42.67
2017-07-18T06:16:25.609Z,43.91
2017-07-18T06:17:26.852Z,44.96
2017-07-18T06:18:28.120Z,45.61
2017-07-18T06:19:29.371Z,46.67
2017-07-18T06:20:30.599Z,47.81
2017-07-18T06:21:31.850Z,48.2
2017-07-18T06:22:33.092Z,48.11
2017-07-18T06:23:34.365Z,48.69
2017-07-18T06:24:35.612Z,48.97
2017-07-18T06:25:36.858Z,47.81
2017-07-18T06:26:38.168Z,49.05
2017-07-18T06:27:39.415Z,49.34
2017-07-18T06:28:40.667Z,49.05
2017-07-18T06:29:41.934Z,49.17
2017-07-18T06:30:43.157Z,48.3
2017-07-18T06:31:44.390Z,47.72
2017-07-18T06:32:45.714Z,48.11
2017-07-18T06:33:46.968Z,48.22
2017-07-18T06:34:48.210Z,46.77
2017-07-18T06:35:49.472Z,46.48
2017-07-18T06:36:50.689Z,46.87
2017-07-18T06:37:51.976Z,46.41
2017-07-18T06:38:53.224Z,43.89
2017-07-18T06:39:54.467Z,46.12
2017-07-18T06:40:55.733Z,45.47
2017-07-18T06:41:56.970Z,45.75
2017-07-18T06:42:58.209Z,45.54
2017-07-18T06:43:59.465Z,45.9
2017-07-18T06:45:00.713Z,46.87
2017-07-18T06:46:01.984Z,47.64
2017-07-18T06:47:03.283Z,46.53
2017-07-18T06:48:04.518Z,45.78
2017-07-18T06:49:05.857Z,43.76
2017-07-18T06:50:07.109Z,43.57
2017-07-18T06:51:08.347Z,42.54
2017-07-18T06:52:09.606Z,41.69
2017-07-18T06:53:10.841Z,40.44
2017-07-18T06:54:12.092Z,39
2017-07-18T06:55:13.333Z,38.73
2017-07-18T06:56:14.574Z,38.26
2017-07-18T06:57:15.854Z,36.72
2017-07-18T06:58:17.099Z,35.94
2017-07-18T06:59:18.414Z,36.24
2017-07-18T07:00:19.658Z,36.63
2017-07-18T07:01:20.903Z,36.9
2017-07-18T07:02:22.156Z,37.1
2017-07-18T07:03:23.406Z,36.92
2017-07-18T07:04:24.668Z,36.84
2017-07-18T07:05:25.915Z,35.67
2017-07-18T07:06:27.218Z,36.25
2017-07-18T07:07:28.482Z,35.69
2017-07-18T07:08:29.725Z,35.39
2017-07-18T07:09:30.960Z,35.22
2017-07-18T07:10:32.224Z,34.16
2017-07-18T07:11:33.571Z,32.53
2017-07-18T07:12:34.789Z,32.07
2017-07-18T07:13:36.075Z,29.56
2017-07-18T07:14:37.290Z,29.48
2017-07-18T07:15:38.528Z,29.84
2017-07-18T07:16:39.832Z,29.77
2017-07-18T07:17:41.082Z,29.2
2017-07-18T07:18:42.352Z,28.93
2017-07-18T07:19:43.602Z,27.29
2017-07-18T07:20:44.871Z,25.92
2017-07-18T07:21:46.116Z,26.03
2017-07-18T07:22:47.397Z,25.93
2017-07-18T07:23:48.663Z,25.79
2017-07-18T07:24:49.951Z,27.34
2017-07-18T07:25:51.219Z,28.49
2017-07-18T07:26:52.471Z,30.38
2017-07-18T07:27:53.724Z,31.46
2017-07-18T07:28:54.971Z,31.26
2017-07-18T07:29:56.226Z,31.26
2017-07-18T07:30:57.577Z,31.54
2017-07-18T07:31:58.841Z,31.46
2017-07-18T07:33:00.085Z,32.13
2017-07-18T07:34:01.355Z,31.26
2017-07-18T07:35:02.578Z,31.08
2017-07-18T07:36:03.836Z,30.32
2017-07-18T07:37:05.083Z,29.94
2017-07-18T07:38:06.355Z,29.3
2017-07-18T07:39:07.661Z,28.22
2017-07-18T07:40:08.904Z,28.59
2017-07-18T07:41:10.155Z,29.36
2017-07-18T07:42:11.437Z,29.36
2017-07-18T07:43:12.681Z,29.27
2017-07-18T07:44:13.936Z,28.41
2017-07-18T07:45:15.199Z,27.64
2017-07-18T07:46:16.443Z,27.26
2017-07-18T07:47:17.693Z,27.07
2017-07-18T07:48:18.953Z,26.11
2017-07-18T07:49:20.210Z,26.31
2017-07-18T07:50:21.570Z,25.94
2017-07-18T07:51:22.813Z,24.49
2017-07-18T07:52:24.049Z,23.62
2017-07-18T07:53:25.310Z,22.93
2017-07-18T07:54:26.547Z,23.72
2017-07-18T07:55:27.868Z,23.91
2017-07-18T07:56:29.167Z,23.3
2017-07-18T07:57:30.429Z,22.72
2017-07-18T07:58:31.765Z,23.72
2017-07-18T07:59:33.000Z,23.03
2017-07-18T08:00:34.360Z,22.93
2017-07-18T08:01:35.697Z,22.64
2017-07-18T08:02:36.935Z,22.73
2017-07-18T08:03:38.177Z,22.56
2017-07-18T08:04:39.427Z,22.11
2017-07-18T08:05:40.671Z,20.73
2017-07-18T08:06:41.990Z,20.33
2017-07-18T08:07:43.246Z,21.48
2017-07-18T08:08:44.504Z,21.86
2017-07-18T08:09:45.791Z,22.27
2017-07-18T08:10:47.135Z,21
2017-07-18T08:11:48.360Z,22.06
2017-07-18T08:12:49.611Z,21.67
2017-07-18T08:13:50.877Z,21.09
2017-07-18T08:14:52.141Z,21.77
2017-07-18T08:15:53.391Z,21.21
2017-07-18T08:16:54.646Z,20.42
2017-07-18T08:17:55.895Z,20.97
2017-07-18T08:18:57.154Z,21.06
2017-07-18T08:19:58.402Z,21.94
2017-07-18T08:20:59.684Z,22.23
2017-07-18T08:22:01.253Z,22.23
2017-07-18T08:23:02.378Z,22.34
2017-07-18T08:24:03.649Z,23.21
2017-07-18T08:25:04.904Z,23.02
2017-07-18T08:26:06.258Z,22.91
2017-07-18T08:27:07.630Z,23.77
2017-07-18T08:28:08.881Z,24.54
2017-07-18T08:29:10.140Z,25.42
2017-07-18T08:30:11.403Z,24.91
2017-07-18T08:31:12.648Z,25.29
2017-07-18T08:32:13.965Z,25.99
2017-07-18T08:33:15.343Z,24.71
2017-07-18T08:34:16.611Z,26.34
2017-07-18T08:35:17.866Z,26.73
2017-07-18T08:36:19.120Z,27.61
2017-07-18T08:37:20.370Z,27.49
2017-07-18T08:38:21.816Z,27.61
2017-07-18T08:39:23.069Z,27.21
2017-07-18T08:40:24.317Z,26.93
2017-07-18T08:41:25.572Z,26.37
2017-07-18T08:42:26.836Z,26.26
2017-07-18T08:43:28.082Z,26.06
2017-07-18T08:44:29.418Z,26.35
2017-07-18T08:45:30.703Z,25.88
2017-07-18T08:46:31.928Z,25.49
2017-07-18T08:47:33.177Z,25.6
2017-07-18T08:48:34.490Z,24.92
2017-07-18T08:49:35.838Z,24.84
2017-07-18T08:50:37.176Z,24.27
2017-07-18T08:51:38.431Z,23.89
2017-07-18T08:52:39.692Z,23.13
2017-07-18T08:53:40.950Z,22.16
2017-07-18T08:54:42.256Z,21.21
2017-07-18T08:55:43.504Z,19.65
2017-07-18T08:56:44.750Z,19.46
2017-07-18T08:57:46.000Z,18.7
2017-07-18T08:58:47.269Z,17.93
2017-07-18T08:59:48.506Z,16.16
2017-07-18T09:00:49.873Z,16.06
2017-07-18T09:01:51.288Z,16.44
2017-07-18T09:02:52.428Z,16.44
2017-07-18T09:03:53.675Z,16.13
2017-07-18T09:04:54.926Z,16.71
2017-07-18T09:05:56.202Z,17.79
2017-07-18T09:06:57.676Z,17.19
2017-07-18T09:07:58.956Z,17.99
2017-07-18T09:09:00.196Z,17.99
2017-07-18T09:10:01.449Z,17.91
2017-07-18T09:11:02.718Z,17.34
2017-07-18T09:12:04.025Z,16.16
2017-07-18T09:13:05.408Z,15.58
2017-07-18T09:14:06.664Z,15.28
2017-07-18T09:15:07.955Z,15.08
2017-07-18T09:16:09.236Z,15.08
2017-07-18T09:17:10.469Z,15.36
2017-07-18T09:18:11.791Z,16.34
2017-07-18T09:19:13.041Z,16.53
2017-07-18T09:20:14.292Z,15.66
2017-07-18T09:21:15.559Z,16.56
2017-07-18T09:22:16.817Z,16.06
2017-07-18T09:23:18.193Z,14.87
2017-07-18T09:24:19.488Z,14.96
2017-07-18T09:25:20.730Z,15.35
2017-07-18T09:26:22.065Z,16.03
2017-07-18T09:27:23.316Z,16.03
2017-07-18T09:28:24.570Z,15.91
2017-07-18T09:29:25.839Z,17
2017-07-18T09:30:27.108Z,17.1
2017-07-18T09:31:28.481Z,17.22
2017-07-18T09:32:29.776Z,16.53
2017-07-18T09:33:31.077Z,15.45
2017-07-18T09:34:32.342Z,14.97
2017-07-18T09:35:33.597Z,14.58
2017-07-18T09:36:34.870Z,14.39
2017-07-18T09:37:36.188Z,14.3
2017-07-18T09:38:37.451Z,13.81
2017-07-18T09:39:38.707Z,13.9
2017-07-18T09:40:39.966Z,14.19
2017-07-18T09:41:41.229Z,14.38
2017-07-18T09:42:42.507Z,14.66
2017-07-18T09:43:43.849Z,15.36
2017-07-18T09:44:45.145Z,14.77
2017-07-18T09:45:46.405Z,15.64
2017-07-18T09:46:47.651Z,15.55
2017-07-18T09:47:48.902Z,14.57
2017-07-18T09:48:50.165Z,14.58
2017-07-18T09:49:51.440Z,14.69
2017-07-18T09:50:52.719Z,14
2017-07-18T09:51:53.955Z,13.9
2017-07-18T09:52:55.215Z,14.1
2017-07-18T09:53:56.482Z,13.61
2017-07-18T09:54:57.821Z,13.42
2017-07-18T09:55:59.088Z,12.93
2017-07-18T09:57:00.335Z,12.35
2017-07-18T09:58:01.609Z,12.46
2017-07-18T09:59:02.839Z,11.08
2017-07-18T10:00:04.109Z,11.66
2017-07-18T10:01:05.484Z,11.36
2017-07-18T10:02:06.634Z,11.36
2017-07-18T10:03:07.947Z,11.85
2017-07-18T10:04:09.209Z,12.54
2017-07-18T10:05:10.462Z,12.82
2017-07-18T10:06:11.762Z,13.42
2017-07-18T10:07:13.021Z,13.59
2017-07-18T10:08:14.292Z,14.48
2017-07-18T10:09:15.550Z,13.59
2017-07-18T10:10:16.816Z,13.89
2017-07-18T10:11:18.137Z,14.09
2017-07-18T10:12:19.416Z,13.98
2017-07-18T10:13:20.694Z,14.56
2017-07-18T10:14:21.944Z,14.75
2017-07-18T10:15:23.231Z,15.63
2017-07-18T10:16:24.484Z,15.51
2017-07-18T10:17:25.737Z,15.89
2017-07-18T10:18:26.990Z,16.17
2017-07-18T10:19:28.259Z,16.4
2017-07-18T10:20:29.496Z,15.21
2017-07-18T10:21:30.851Z,16.09
2017-07-18T10:22:32.116Z,16.69
2017-07-18T10:23:33.392Z,16.09
2017-07-18T10:24:34.625Z,16.48
2017-07-18T10:25:35.979Z,16.48
2017-07-18T10:26:37.317Z,16.1
2017-07-18T10:27:38.573Z,15.52
2017-07-18T10:28:39.823Z,16.29
2017-07-18T10:29:41.069Z,16.58
2017-07-18T10:30:42.431Z,16.97
2017-07-18T10:31:43.776Z,16.88
2017-07-18T10:32:45.026Z,16.4
2017-07-18T10:33:46.299Z,16
2017-07-18T10:34:47.566Z,16.21
2017-07-18T10:35:48.828Z,16.29
2017-07-18T10:36:50.151Z,16.98
2017-07-18T10:37:51.408Z,17.18
2017-07-18T10:38:52.644Z,16.97
2017-07-18T10:39:53.893Z,18.42
2017-07-18T10:40:55.149Z,19
2017-07-18T10:41:56.488Z,19.21
2017-07-18T10:42:57.761Z,19.4
2017-07-18T10:43:59.015Z,20.54
2017-07-18T10:45:00.255Z,21.03
2017-07-18T10:46:01.512Z,21.31
2017-07-18T10:47:02.766Z,21.12
2017-07-18T10:48:04.082Z,20.7
2017-07-18T10:49:05.342Z,22.64
2017-07-18T10:50:06.594Z,23.33
2017-07-18T10:51:07.866Z,23.11
2017-07-18T10:52:09.094Z,24.08
2017-07-18T10:53:10.353Z,24.27
2017-07-18T10:54:11.594Z,24.46
2017-07-18T10:55:12.855Z,25.44
2017-07-18T10:56:14.144Z,26.32
2017-07-18T10:57:15.447Z,25.52
2017-07-18T10:58:16.694Z,26.09
2017-07-18T10:59:17.943Z,27.23
2017-07-18T11:00:19.194Z,28.78
2017-07-18T11:01:20.519Z,27.61
2017-07-18T11:02:21.784Z,28.38
2017-07-18T11:03:23.139Z,29.04
2017-07-18T11:04:24.379Z,29.71
2017-07-18T11:05:25.621Z,30.19
2017-07-18T11:06:26.869Z,30.39
2017-07-18T11:07:28.225Z,29.13
2017-07-18T11:08:29.534Z,30.28
2017-07-18T11:09:30.800Z,31.16
2017-07-18T11:10:32.061Z,31.16
2017-07-18T11:11:33.310Z,31.25
2017-07-18T11:12:34.551Z,31.64
2017-07-18T11:13:35.889Z,32.71
2017-07-18T11:14:37.163Z,32.02
2017-07-18T11:15:38.399Z,32.49
2017-07-18T11:16:39.647Z,32.97
2017-07-18T11:17:40.901Z,33.15
2017-07-18T11:18:42.179Z,33.62
2017-07-18T11:19:43.404Z,34.11
2017-07-18T11:20:44.651Z,34.48
2017-07-18T11:21:45.917Z,35.25
2017-07-18T11:22:47.198Z,36.71
2017-07-18T11:23:48.458Z,36.5
2017-07-18T11:24:49.766Z,35.53
2017-07-18T11:25:50.987Z,36.3
2017-07-18T11:26:52.229Z,37.18
2017-07-18T11:27:53.612Z,36.5
2017-07-18T11:28:54.861Z,37.86
2017-07-18T11:29:56.116Z,37.47
2017-07-18T11:30:57.367Z,37.98
2017-07-18T11:31:58.610Z,37.98
2017-07-18T11:32:59.856Z,37.78
2017-07-18T11:34:01.194Z,36.91
2017-07-18T11:35:02.345Z,36.42
2017-07-18T11:36:03.598Z,36.71
2017-07-18T11:37:04.838Z,36.81
2017-07-18T11:38:06.114Z,36.71
2017-07-18T11:39:07.422Z,36.69
2017-07-18T11:40:08.687Z,36.5
2017-07-18T11:41:09.996Z,36.69
2017-07-18T11:42:11.236Z,36.91
2017-07-18T11:43:12.480Z,37.1
2017-07-18T11:44:13.709Z,37.78
2017-07-18T11:45:14.957Z,37.78
2017-07-18T11:46:16.202Z,37.88
2017-07-18T11:47:17.458Z,38.07
2017-07-18T11:48:18.721Z,38.25
2017-07-18T11:49:19.965Z,37.76
2017-07-18T11:50:21.224Z,38.13
2017-07-18T11:51:22.486Z,38.81
2017-07-18T11:52:23.734Z,38.91
2017-07-18T11:53:24.980Z,39.28
2017-07-18T11:54:26.223Z,39.57
2017-07-18T11:55:27.468Z,40.34
2017-07-18T11:56:28.719Z,39.39
2017-07-18T11:57:30.000Z,39.11
2017-07-18T11:58:31.256Z,38.81
2017-07-18T11:59:32.531Z,39.49
2017-07-18T12:00:33.776Z,39.28
2017-07-18T12:01:35.045Z,39.08
2017-07-18T12:02:36.287Z,39.37
2017-07-18T12:03:37.534Z,39.16
2017-07-18T12:04:38.837Z,40.03
2017-07-18T12:05:40.146Z,39.84
2017-07-18T12:06:41.497Z,40.03
2017-07-18T12:07:42.740Z,41.58
2017-07-18T12:08:43.985Z,41.1
2017-07-18T12:09:45.234Z,40.91
2017-07-18T12:10:46.499Z,41.49
2017-07-18T12:11:47.898Z,42.26
2017-07-18T12:12:49.176Z,41.58
2017-07-18T12:13:50.422Z,41.2
2017-07-18T12:14:51.665Z,41.2
2017-07-18T12:15:52.921Z,41.3
2017-07-18T12:16:54.170Z,40.42
2017-07-18T12:17:55.461Z,40.83
2017-07-18T12:18:56.720Z,39.67
2017-07-18T12:19:57.956Z,40.34
2017-07-18T12:20:59.195Z,39.95
2017-07-18T12:22:00.442Z,39.28
2017-07-18T12:23:01.795Z,39.76
2017-07-18T12:24:03.043Z,39.94
2017-07-18T12:25:04.292Z,39.74
2017-07-18T12:26:05.543Z,39.94
2017-07-18T12:27:06.791Z,39.74
2017-07-18T12:28:08.041Z,41
2017-07-18T12:29:09.300Z,41.39
2017-07-18T12:30:10.616Z,41.2
2017-07-18T12:31:11.896Z,41.68
2017-07-18T12:32:13.152Z,41.3
2017-07-18T12:33:14.412Z,42.14
2017-07-18T12:34:15.686Z,42.24
2017-07-18T12:35:16.904Z,42.36
2017-07-18T12:36:18.181Z,41.78
2017-07-18T12:37:19.435Z,42.26
2017-07-18T12:38:20.665Z,41
2017-07-18T12:39:21.928Z,41.08
2017-07-18T12:40:23.179Z,41.37
2017-07-18T12:41:24.465Z,41.08
2017-07-18T12:42:25.732Z,41.66
2017-07-18T12:43:26.975Z,42.14
2017-07-18T12:44:28.267Z,41.08
2017-07-18T12:45:29.515Z,41.66
2017-07-18T12:46:30.761Z,41.17
2017-07-18T12:47:32.008Z,41.08
2017-07-18T12:48:33.283Z,41.08
2017-07-18T12:49:34.515Z,41.76
2017-07-18T12:50:35.764Z,41.27
2017-07-18T12:51:37.016Z,41.86
2017-07-18T12:52:38.262Z,42.14
2017-07-18T12:53:39.503Z,42.05
2017-07-18T12:54:40.774Z,42.34
2017-07-18T12:55:42.071Z,43.02
2017-07-18T12:56:43.320Z,43.12
2017-07-18T12:57:44.585Z,43.31
2017-07-18T12:58:45.836Z,43.43
2017-07-18T12:59:47.087Z,41.97
2017-07-18T13:00:48.338Z,42.07
2017-07-18T13:01:49.645Z,42.46
2017-07-18T13:02:50.899Z,42.07
2017-07-18T13:03:52.119Z,41.49
2017-07-18T13:04:53.367Z,41.1
2017-07-18T13:05:54.621Z,41.2
2017-07-18T13:06:55.868Z,41.39
2017-07-18T13:07:57.109Z,41.1
2017-07-18T13:08:58.398Z,40.91
2017-07-18T13:09:59.659Z,41.2
2017-07-18T13:11:00.898Z,40.33
2017-07-18T13:12:02.148Z,41